Time;durP1;ratioP1;P1;durP2;ratioP2;P2;SDS_P1;SDS_P2;PMS_P1;PMS_P2;Temp;Humidity;BMP_temperature;BMP_pressure;BME280_temperature;BME280_humidity;BME280_pressure;Samples;Min_cycle;Max_cycle;Signal;HPM_P1;HPM_P2
2021/11/28 00:01:49;;;;;;;18.10;8.82;;;;;;;;;;6273480;28;20045;-80
2021/11/28 00:04:52;;;;;;;21.20;9.68;;;;;;;;;;6274237;28;20056;-79
2021/11/28 00:08:18;;;;;;;22.95;9.90;;;;;;;;;;6266907;28;20561;-80
2021/11/28 00:11:24;;;;;;;20.38;9.05;;;;;;;;;;6269792;28;20052;-83
2021/11/28 00:14:26;;;;;;;21.95;11.02;;;;;;;;;;6268468;28;20055;-82
2021/11/28 00:17:27;;;;;;;19.80;10.05;;;;;;;;;;6252871;28;20505;-80
2021/11/28 00:20:29;;;;;;;20.77;9.75;;;;;;;;;;6251917;28;20545;-80
2021/11/28 00:23:30;;;;;;;19.40;8.18;;;;;;;;;;6244671;28;20046;-83
2021/11/28 00:26:32;;;;;;;21.27;9.38;;;;;;;;;;6271110;28;20065;-80
2021/11/28 00:29:35;;;;;;;18.08;9.63;;;;;;;;;;6267284;28;20047;-82
2021/11/28 00:32:37;;;;;;;16.83;8.65;;;;;;;;;;6268977;28;20049;-82
2021/11/28 00:35:39;;;;;;;14.63;9.25;;;;;;;;;;6264851;28;20380;-82
2021/11/28 00:38:41;;;;;;;20.58;9.50;;;;;;;;;;6270867;28;20749;-82
2021/11/28 00:41:43;;;;;;;17.73;9.73;;;;;;;;;;6252081;28;20048;-80
2021/11/28 00:45:05;;;;;;;19.17;9.35;;;;;;;;;;6251852;28;20101;-83
2021/11/28 00:48:07;;;;;;;18.35;8.93;;;;;;;;;;6268932;28;20072;-80
2021/11/28 00:54:20;;;;;;;18.15;9.07;;;;;;;;;;6267251;28;20063;-82
2021/11/28 00:57:25;;;;;;;20.67;9.93;;;;;;;;;;6252054;28;20221;-82
2021/11/28 01:00:27;;;;;;;19.08;9.65;;;;;;;;;;6266943;28;20130;-83
2021/11/28 01:03:29;;;;;;;19.42;9.50;;;;;;;;;;6252422;28;20551;-82
2021/11/28 01:06:31;;;;;;;18.88;8.90;;;;;;;;;;6267794;28;20044;-81
2021/11/28 01:09:33;;;;;;;18.38;9.73;;;;;;;;;;6264390;28;20183;-82
2021/11/28 01:12:36;;;;;;;17.20;9.38;;;;;;;;;;6265053;28;20091;-82
2021/11/28 01:15:38;;;;;;;17.02;9.48;;;;;;;;;;6267274;28;20049;-82
2021/11/28 01:18:39;;;;;;;16.50;9.40;;;;;;;;;;6266117;28;20049;-81
2021/11/28 01:22:11;;;;;;;25.83;10.82;;;;;;;;;;6255555;28;20107;-79
2021/11/28 01:25:14;;;;;;;20.45;10.65;;;;;;;;;;6261511;28;20045;-80
2021/11/28 01:28:16;;;;;;;22.92;10.52;;;;;;;;;;6254254;28;20043;-80
2021/11/28 01:31:18;;;;;;;21.20;10.75;;;;;;;;;;6273754;28;20123;-80
2021/11/28 01:34:20;;;;;;;21.10;10.60;;;;;;;;;;6290463;28;20126;-80
2021/11/28 01:37:22;;;;;;;24.23;10.52;;;;;;;;;;6281574;28;20120;-81
2021/11/28 01:40:24;;;;;;;20.33;10.35;;;;;;;;;;6246853;28;20711;-82
2021/11/28 01:43:26;;;;;;;19.02;10.15;;;;;;;;;;6248206;28;20037;-83
2021/11/28 01:46:28;;;;;;;19.40;10.40;;;;;;;;;;6248546;28;20065;-82
2021/11/28 01:49:31;;;;;;;19.27;10.27;;;;;;;;;;6248935;28;20041;-81
2021/11/28 01:52:35;;;;;;;21.02;9.63;;;;;;;;;;6256554;28;20714;-81
2021/11/28 01:55:37;;;;;;;17.33;9.48;;;;;;;;;;6256355;28;20038;-82
2021/11/28 01:58:43;;;;;;;19.60;9.77;;;;;;;;;;6249064;28;20119;-82
2021/11/28 02:01:46;;;;;;;21.70;9.68;;;;;;;;;;6273039;28;20099;-82
2021/11/28 02:04:48;;;;;;;22.55;9.48;;;;;;;;;;6262171;28;20549;-83
2021/11/28 02:07:51;;;;;;;20.77;9.25;;;;;;;;;;6249396;28;20041;-80
2021/11/28 02:10:53;;;;;;;18.25;9.55;;;;;;;;;;6245853;28;20061;-83
2021/11/28 02:13:55;;;;;;;18.23;9.60;;;;;;;;;;6254234;28;20151;-83
2021/11/28 02:16:56;;;;;;;20.85;10.63;;;;;;;;;;6271452;28;20048;-80
2021/11/28 02:19:58;;;;;;;24.23;10.25;;;;;;;;;;6281171;28;20502;-83
2021/11/28 02:23:00;;;;;;;20.55;10.65;;;;;;;;;;6253706;28;20066;-83
2021/11/28 02:26:07;;;;;;;23.30;10.70;;;;;;;;;;6292523;28;20539;-83
2021/11/28 02:29:10;;;;;;;23.90;10.60;;;;;;;;;;6283661;28;20127;-83
2021/11/28 02:32:11;;;;;;;24.52;10.20;;;;;;;;;;6258552;28;20065;-81
2021/11/28 02:35:15;;;;;;;20.55;10.55;;;;;;;;;;6259991;28;20124;-79
2021/11/28 02:38:17;;;;;;;22.70;10.63;;;;;;;;;;6246726;28;20060;-83
2021/11/28 02:41:18;;;;;;;25.70;11.65;;;;;;;;;;6252660;28;20470;-82
2021/11/28 02:44:26;;;;;;;22.98;10.52;;;;;;;;;;6262273;28;20049;-83
2021/11/28 02:47:28;;;;;;;25.17;11.90;;;;;;;;;;6245992;28;20061;-81
2021/11/28 02:50:30;;;;;;;25.35;11.73;;;;;;;;;;6246467;28;20127;-82
2021/11/28 02:53:32;;;;;;;22.45;11.25;;;;;;;;;;6254028;28;20071;-83
2021/11/28 02:56:35;;;;;;;20.98;10.43;;;;;;;;;;6270107;28;20110;-83
2021/11/28 02:59:37;;;;;;;23.80;11.38;;;;;;;;;;6269432;28;20068;-83
2021/11/28 03:02:38;;;;;;;25.65;10.98;;;;;;;;;;6227885;28;20200;-83
2021/11/28 03:05:50;;;;;;;19.80;9.48;;;;;;;;;;6253828;28;20161;-83
2021/11/28 03:08:52;;;;;;;24.80;11.40;;;;;;;;;;6264384;28;20049;-82
2021/11/28 03:11:53;;;;;;;26.02;11.60;;;;;;;;;;6267776;28;20052;-80
2021/11/28 03:14:55;;;;;;;21.20;11.23;;;;;;;;;;6259684;28;20045;-83
2021/11/28 03:17:57;;;;;;;24.52;11.82;;;;;;;;;;6253912;28;20127;-81
2021/11/28 03:21:02;;;;;;;21.00;10.70;;;;;;;;;;6251861;28;20049;-83
2021/11/28 03:24:06;;;;;;;22.33;10.32;;;;;;;;;;6270026;28;20634;-84
2021/11/28 03:27:09;;;;;;;19.30;10.20;;;;;;;;;;6234158;28;20056;-80
2021/11/28 03:30:14;;;;;;;21.83;10.40;;;;;;;;;;6241463;28;20048;-80
2021/11/28 03:33:37;;;;;;;22.25;11.25;;;;;;;;;;6252642;28;20046;-82
2021/11/28 03:36:53;;;;;;;26.17;11.65;;;;;;;;;;6249318;28;20056;-81
2021/11/28 03:39:55;;;;;;;25.17;11.65;;;;;;;;;;6271755;28;20052;-83
2021/11/28 03:43:06;;;;;;;24.83;11.85;;;;;;;;;;6253533;28;20048;-83
2021/11/28 03:46:09;;;;;;;35.90;14.55;;;;;;;;;;6273411;28;20045;-83
2021/11/28 03:49:11;;;;;;;28.05;12.35;;;;;;;;;;6271255;28;20104;-83
2021/11/28 03:52:13;;;;;;;23.15;11.98;;;;;;;;;;6253741;28;20099;-83
2021/11/28 03:55:16;;;;;;;20.75;10.65;;;;;;;;;;6272010;28;20041;-82
2021/11/28 03:58:19;;;;;;;25.10;12.23;;;;;;;;;;6270451;28;20045;-83
2021/11/28 04:01:22;;;;;;;26.98;11.55;;;;;;;;;;6267775;28;20278;-83
2021/11/28 04:04:24;;;;;;;26.95;12.48;;;;;;;;;;6252213;28;20482;-83
2021/11/28 04:07:38;;;;;;;25.02;12.00;;;;;;;;;;6268945;28;20599;-83
2021/11/28 04:10:40;;;;;;;24.40;11.27;;;;;;;;;;6267415;28;20041;-82
2021/11/28 04:13:42;;;;;;;23.92;11.30;;;;;;;;;;6244866;28;20494;-81
2021/11/28 04:16:44;;;;;;;23.60;11.93;;;;;;;;;;6269255;28;20049;-79
2021/11/28 04:19:52;;;;;;;26.88;11.80;;;;;;;;;;6267312;28;20060;-81
2021/11/28 04:22:54;;;;;;;29.63;11.88;;;;;;;;;;6260090;28;20590;-80
2021/11/28 04:25:55;;;;;;;25.27;11.82;;;;;;;;;;6226664;28;20506;-83
2021/11/28 04:29:01;;;;;;;31.73;12.75;;;;;;;;;;6259339;28;20041;-82
2021/11/28 04:32:06;;;;;;;29.17;12.55;;;;;;;;;;6267319;28;20037;-82
2021/11/28 04:35:14;;;;;;;28.40;12.82;;;;;;;;;;6268861;28;20041;-80
2021/11/28 04:38:16;;;;;;;30.45;12.80;;;;;;;;;;6249910;28;20094;-82
2021/11/28 04:41:18;;;;;;;35.95;13.35;;;;;;;;;;6250644;28;20067;-83
2021/11/28 04:44:27;;;;;;;29.00;12.98;;;;;;;;;;6266829;28;20045;-79
2021/11/28 04:47:29;;;;;;;33.92;13.77;;;;;;;;;;6237248;28;20060;-82
2021/11/28 04:50:37;;;;;;;31.00;13.15;;;;;;;;;;6251830;28;20094;-81
2021/11/28 04:53:39;;;;;;;33.92;13.30;;;;;;;;;;6251327;28;20045;-81
2021/11/28 04:56:41;;;;;;;34.97;13.85;;;;;;;;;;6250912;28;20044;-82
2021/11/28 04:59:43;;;;;;;32.72;13.00;;;;;;;;;;6265023;28;20045;-80
2021/11/28 05:02:46;;;;;;;28.45;12.40;;;;;;;;;;6268299;28;20059;-80
2021/11/28 05:05:48;;;;;;;27.98;12.02;;;;;;;;;;6241624;28;20124;-82
2021/11/28 05:09:16;;;;;;;28.08;11.68;;;;;;;;;;6247800;28;20049;-82
2021/11/28 05:12:17;;;;;;;28.42;12.52;;;;;;;;;;6265335;28;20107;-82
2021/11/28 05:15:20;;;;;;;33.05;12.88;;;;;;;;;;6267745;28;20517;-81
2021/11/28 05:18:51;;;;;;;36.95;13.45;;;;;;;;;;6253557;28;20383;-80
2021/11/28 05:22:11;;;;;;;32.60;13.23;;;;;;;;;;6266009;28;20465;-82
2021/11/28 05:25:16;;;;;;;34.72;13.05;;;;;;;;;;6267200;28;20387;-80
2021/11/28 05:28:17;;;;;;;31.83;12.68;;;;;;;;;;6251015;28;20064;-79
2021/11/28 05:31:19;;;;;;;34.53;13.32;;;;;;;;;;6268391;28;20136;-79
2021/11/28 05:34:47;;;;;;;32.92;12.40;;;;;;;;;;6261785;28;20059;-81
2021/11/28 05:38:21;;;;;;;30.45;13.55;;;;;;;;;;6242823;28;20040;-82
2021/11/28 05:41:24;;;;;;;46.60;15.73;;;;;;;;;;6266409;28;20047;-83
2021/11/28 05:44:26;;;;;;;35.20;12.65;;;;;;;;;;6249152;28;20075;-82
2021/11/28 05:47:47;;;;;;;34.92;13.27;;;;;;;;;;6265829;28;20460;-81
2021/11/28 05:50:57;;;;;;;32.20;12.27;;;;;;;;;;6250698;28;20630;-83
2021/11/28 05:54:00;;;;;;;36.85;13.63;;;;;;;;;;6250241;28;20048;-79
2021/11/28 05:57:02;;;;;;;43.72;13.70;;;;;;;;;;6265494;28;20044;-80
2021/11/28 06:00:07;;;;;;;43.90;15.43;;;;;;;;;;6266443;28;20058;-83
2021/11/28 06:03:25;;;;;;;34.28;13.23;;;;;;;;;;6267272;28;20293;-82
2021/11/28 06:06:45;;;;;;;41.80;15.65;;;;;;;;;;6266240;28;20041;-82
2021/11/28 06:09:51;;;;;;;42.15;15.38;;;;;;;;;;6237508;28;20058;-82
2021/11/28 06:12:55;;;;;;;41.58;14.85;;;;;;;;;;6236008;28;20530;-81
2021/11/28 06:15:56;;;;;;;39.97;14.23;;;;;;;;;;6231654;28;20135;-80
2021/11/28 06:19:21;;;;;;;53.25;17.33;;;;;;;;;;6241317;28;20132;-80
2021/11/28 06:22:52;;;;;;;44.83;16.48;;;;;;;;;;6228183;28;20054;-81
2021/11/28 06:25:55;;;;;;;45.33;17.40;;;;;;;;;;6246859;28;20461;-82
2021/11/28 06:29:07;;;;;;;40.50;14.48;;;;;;;;;;6264516;28;20124;-84
2021/11/28 06:32:09;;;;;;;39.95;14.27;;;;;;;;;;6253784;28;20040;-83
2021/11/28 06:35:16;;;;;;;42.00;14.30;;;;;;;;;;6273525;28;20511;-80
2021/11/28 06:38:41;;;;;;;39.38;15.00;;;;;;;;;;6268380;28;20044;-80
2021/11/28 06:42:03;;;;;;;37.33;13.48;;;;;;;;;;6269125;28;20083;-83
2021/11/28 06:45:05;;;;;;;45.50;14.47;;;;;;;;;;6263064;28;20083;-82
2021/11/28 06:48:20;;;;;;;45.88;15.23;;;;;;;;;;6256352;28;20452;-83
2021/11/28 06:51:55;;;;;;;44.67;15.02;;;;;;;;;;6270157;28;20098;-81
2021/11/28 06:55:17;;;;;;;43.70;14.93;;;;;;;;;;6273270;28;20694;-81
2021/11/28 06:58:20;;;;;;;46.45;15.45;;;;;;;;;;6270071;28;20459;-83
2021/11/28 07:01:22;;;;;;;47.50;16.33;;;;;;;;;;6267977;28;20037;-80
2021/11/28 07:04:46;;;;;;;49.88;15.85;;;;;;;;;;6254899;28;20051;-83
2021/11/28 07:07:50;;;;;;;57.53;20.65;;;;;;;;;;6269403;28;20102;-82
2021/11/28 07:10:53;;;;;;;56.10;21.13;;;;;;;;;;6251060;28;20049;-80
2021/11/28 07:13:56;;;;;;;47.00;17.00;;;;;;;;;;6254985;28;20048;-81
2021/11/28 07:16:57;;;;;;;50.55;18.00;;;;;;;;;;6271871;28;20052;-80
2021/11/28 07:20:05;;;;;;;49.50;16.75;;;;;;;;;;6270246;28;20045;-79
2021/11/28 07:23:18;;;;;;;75.03;32.10;;;;;;;;;;6251742;28;20056;-80
2021/11/28 07:26:20;;;;;;;46.67;16.90;;;;;;;;;;6268718;28;20124;-81
2021/11/28 07:29:22;;;;;;;38.80;14.65;;;;;;;;;;6250931;28;20041;-82
2021/11/28 07:32:24;;;;;;;38.20;16.75;;;;;;;;;;6266431;28;20041;-82
2021/11/28 07:35:44;;;;;;;38.22;15.85;;;;;;;;;;6261941;28;20038;-80
2021/11/28 07:39:07;;;;;;;36.25;16.80;;;;;;;;;;6263350;28;20057;-80
2021/11/28 07:42:08;;;;;;;44.50;17.42;;;;;;;;;;6268052;28;20055;-82
2021/11/28 07:45:11;;;;;;;44.55;16.83;;;;;;;;;;6261076;28;20092;-79
2021/11/28 07:48:16;;;;;;;61.67;23.48;;;;;;;;;;6265279;28;20121;-80
2021/11/28 07:51:38;;;;;;;47.00;17.35;;;;;;;;;;6265753;28;20055;-79
2021/11/28 07:54:45;;;;;;;40.95;15.85;;;;;;;;;;6266933;28;20178;-80
2021/11/28 07:58:01;;;;;;;37.95;15.25;;;;;;;;;;6248029;28;20041;-81
2021/11/28 08:01:03;;;;;;;41.40;15.45;;;;;;;;;;6264399;28;20044;-81
2021/11/28 08:04:09;;;;;;;39.80;14.93;;;;;;;;;;6247554;28;20116;-82
2021/11/28 08:07:29;;;;;;;43.55;14.85;;;;;;;;;;6257568;28;20041;-82
2021/11/28 08:11:00;;;;;;;41.75;16.70;;;;;;;;;;6235299;28;20070;-81
2021/11/28 08:14:01;;;;;;;54.38;21.33;;;;;;;;;;6228955;28;20044;-81
2021/11/28 08:17:03;;;;;;;73.20;32.35;;;;;;;;;;6253993;28;20068;-78
2021/11/28 08:20:09;;;;;;;36.78;14.73;;;;;;;;;;6252170;28;20049;-81
2021/11/28 08:23:11;;;;;;;31.50;13.23;;;;;;;;;;6251085;28;20433;-80
2021/11/28 08:26:13;;;;;;;38.65;14.30;;;;;;;;;;6249624;28;20160;-80
2021/11/28 08:29:15;;;;;;;36.72;14.55;;;;;;;;;;6255258;28;20147;-79
2021/11/28 08:32:19;;;;;;;51.47;25.05;;;;;;;;;;6239976;28;20056;-80
2021/11/28 08:35:39;;;;;;;40.40;16.83;;;;;;;;;;6255320;28;20046;-81
2021/11/28 08:38:43;;;;;;;49.70;21.52;;;;;;;;;;6246304;28;20160;-81
2021/11/28 08:41:44;;;;;;;43.67;18.17;;;;;;;;;;6239110;28;20120;-79
2021/11/28 08:44:46;;;;;;;40.20;15.75;;;;;;;;;;6264089;28;20033;-81
2021/11/28 08:47:48;;;;;;;37.67;16.25;;;;;;;;;;6264593;28;20090;-79
2021/11/28 08:50:49;;;;;;;43.85;16.55;;;;;;;;;;6262578;28;20049;-78
2021/11/28 08:53:56;;;;;;;33.88;15.90;;;;;;;;;;6263507;28;20112;-83
2021/11/28 08:56:58;;;;;;;35.03;14.85;;;;;;;;;;6282023;28;20120;-79
2021/11/28 09:00:00;;;;;;;38.55;16.30;;;;;;;;;;6280275;28;20061;-82
2021/11/28 09:03:02;;;;;;;38.90;17.08;;;;;;;;;;6265902;28;20171;-81
2021/11/28 09:06:04;;;;;;;36.00;16.25;;;;;;;;;;6260697;28;20052;-80
2021/11/28 09:09:06;;;;;;;29.40;13.70;;;;;;;;;;6253649;28;20041;-81
2021/11/28 09:12:08;;;;;;;37.55;17.52;;;;;;;;;;6238381;28;20553;-81
2021/11/28 09:15:11;;;;;;;44.10;20.35;;;;;;;;;;6262788;28;20037;-82
2021/11/28 09:18:23;;;;;;;36.83;16.43;;;;;;;;;;6250132;28;20101;-83
2021/11/28 09:21:25;;;;;;;33.83;15.15;;;;;;;;;;6266900;28;20447;-82
2021/11/28 09:24:36;;;;;;;34.00;13.02;;;;;;;;;;6250895;28;20098;-82
2021/11/28 09:27:43;;;;;;;33.42;13.40;;;;;;;;;;6266997;28;20406;-82
2021/11/28 09:30:44;;;;;;;34.33;15.65;;;;;;;;;;6268220;28;20095;-82
2021/11/28 09:33:46;;;;;;;39.17;18.13;;;;;;;;;;6267755;28;20055;-82
2021/11/28 09:36:48;;;;;;;32.15;15.23;;;;;;;;;;6258319;28;20076;-83
2021/11/28 09:39:49;;;;;;;33.42;14.00;;;;;;;;;;6267044;28;20052;-83
2021/11/28 09:42:54;;;;;;;47.97;20.40;;;;;;;;;;6268204;28;20067;-82
2021/11/28 09:45:56;;;;;;;33.33;14.15;;;;;;;;;;6267533;28;20152;-81
2021/11/28 09:49:01;;;;;;;58.63;23.67;;;;;;;;;;6274983;28;20173;-83
2021/11/28 09:52:08;;;;;;;74.15;34.95;;;;;;;;;;6278384;28;20070;-82
2021/11/28 09:55:12;;;;;;;59.63;25.35;;;;;;;;;;6243250;28;20470;-82
2021/11/28 09:58:15;;;;;;;35.13;16.10;;;;;;;;;;6239066;28;20064;-84
2021/11/28 10:01:17;;;;;;;28.48;13.15;;;;;;;;;;6259568;28;20041;-83
2021/11/28 10:04:19;;;;;;;31.07;14.67;;;;;;;;;;6266013;28;20072;-83
2021/11/28 10:07:22;;;;;;;52.05;21.67;;;;;;;;;;6257947;28;20054;-83
2021/11/28 10:10:24;;;;;;;29.03;12.90;;;;;;;;;;6274008;28;20055;-83
2021/11/28 10:13:25;;;;;;;27.60;12.02;;;;;;;;;;6286933;28;20045;-82
2021/11/28 10:16:27;;;;;;;39.50;16.75;;;;;;;;;;6268562;28;20045;-82
2021/11/28 10:19:32;;;;;;;60.97;24.23;;;;;;;;;;6231428;28;20050;-81
2021/11/28 10:22:33;;;;;;;25.63;12.45;;;;;;;;;;6267764;28;20061;-82
2021/11/28 10:25:35;;;;;;;26.38;11.48;;;;;;;;;;6253161;28;20075;-81
2021/11/28 10:29:16;;;;;;;28.98;12.13;;;;;;;;;;6263793;28;20067;-82
2021/11/28 10:32:23;;;;;;;26.60;11.63;;;;;;;;;;6267372;28;20041;-83
2021/11/28 10:35:27;;;;;;;21.52;10.35;;;;;;;;;;6266158;28;20053;-82
2021/11/28 10:38:35;;;;;;;19.20;10.10;;;;;;;;;;6226715;28;20428;-82
2021/11/28 10:41:46;;;;;;;16.55;7.65;;;;;;;;;;6267056;28;20045;-83
2021/11/28 10:45:15;;;;;;;24.70;11.95;;;;;;;;;;6264855;28;20045;-82
2021/11/28 10:48:26;;;;;;;19.05;9.15;;;;;;;;;;6268573;28;20037;-81
2021/11/28 10:51:27;;;;;;;15.25;7.43;;;;;;;;;;6243337;28;20149;-82
2021/11/28 10:54:32;;;;;;;14.60;7.30;;;;;;;;;;6262676;28;20120;-81
2021/11/28 10:57:33;;;;;;;17.98;7.60;;;;;;;;;;6265796;28;20041;-82
2021/11/28 11:00:40;;;;;;;14.68;7.22;;;;;;;;;;6270749;28;20629;-81
2021/11/28 11:03:47;;;;;;;14.02;6.65;;;;;;;;;;6269364;28;20052;-81
2021/11/28 11:07:09;;;;;;;18.08;7.57;;;;;;;;;;6263870;28;20037;-80
2021/11/28 11:10:26;;;;;;;13.95;7.35;;;;;;;;;;6270616;28;20135;-82
2021/11/28 11:13:28;;;;;;;12.93;7.10;;;;;;;;;;6255848;28;20116;-82
2021/11/28 11:16:29;;;;;;;16.77;7.68;;;;;;;;;;6252531;28;20069;-81
2021/11/28 11:19:36;;;;;;;15.82;7.07;;;;;;;;;;6248959;28;20128;-82
2021/11/28 11:22:39;;;;;;;14.93;7.32;;;;;;;;;;6248910;28;20108;-80
2021/11/28 11:25:46;;;;;;;16.58;7.25;;;;;;;;;;6247406;28;20055;-78
2021/11/28 11:28:58;;;;;;;87.22;28.85;;;;;;;;;;6253500;28;20067;-82
2021/11/28 11:32:02;;;;;;;16.50;8.38;;;;;;;;;;6244734;28;20036;-82
2021/11/28 11:35:08;;;;;;;12.45;6.63;;;;;;;;;;6265508;28;20053;-79
2021/11/28 11:38:13;;;;;;;13.10;6.35;;;;;;;;;;6265680;28;20040;-80
2021/11/28 11:41:14;;;;;;;11.48;6.38;;;;;;;;;;6259703;28;20151;-81
2021/11/28 11:44:17;;;;;;;12.88;6.78;;;;;;;;;;6260331;28;20077;-80
2021/11/28 11:47:19;;;;;;;14.82;5.80;;;;;;;;;;6259884;28;20124;-80
2021/11/28 11:50:24;;;;;;;15.40;6.95;;;;;;;;;;6232379;28;20116;-79
2021/11/28 11:53:26;;;;;;;12.40;6.55;;;;;;;;;;6253109;28;20048;-80
2021/11/28 11:56:27;;;;;;;12.18;6.30;;;;;;;;;;6257434;28;20096;-80
2021/11/28 11:59:29;;;;;;;15.32;6.95;;;;;;;;;;6242930;28;20041;-80
2021/11/28 12:02:37;;;;;;;11.57;5.65;;;;;;;;;;6259013;28;20079;-80
2021/11/28 12:05:40;;;;;;;14.13;6.60;;;;;;;;;;6259234;28;20056;-82
2021/11/28 12:08:54;;;;;;;13.88;6.65;;;;;;;;;;6243070;28;20045;-82
2021/11/28 12:11:58;;;;;;;13.02;6.43;;;;;;;;;;6259626;28;20052;-81
2021/11/28 12:15:18;;;;;;;13.55;6.43;;;;;;;;;;6264580;28;20122;-80
2021/11/28 12:18:37;;;;;;;14.40;6.82;;;;;;;;;;6267258;28;20055;-81
2021/11/28 12:21:41;;;;;;;12.93;7.07;;;;;;;;;;6245486;28;20038;-79
2021/11/28 12:24:43;;;;;;;12.02;7.07;;;;;;;;;;6276585;28;20141;-80
2021/11/28 12:27:49;;;;;;;16.48;8.27;;;;;;;;;;6266276;28;20152;-80
2021/11/28 12:30:56;;;;;;;16.58;7.85;;;;;;;;;;6258142;28;20124;-82
2021/11/28 12:33:58;;;;;;;17.95;8.82;;;;;;;;;;6260102;28;20128;-81
2021/11/28 12:37:00;;;;;;;16.52;7.82;;;;;;;;;;6233670;28;20056;-80
2021/11/28 12:40:19;;;;;;;18.30;9.80;;;;;;;;;;6256429;28;20553;-81
2021/11/28 12:43:22;;;;;;;14.73;7.28;;;;;;;;;;6230920;28;20136;-83
2021/11/28 12:46:47;;;;;;;19.67;8.70;;;;;;;;;;6260069;28;20087;-82
2021/11/28 12:50:17;;;;;;;19.27;9.38;;;;;;;;;;6255867;28;20094;-78
2021/11/28 12:53:29;;;;;;;16.10;8.15;;;;;;;;;;6236783;28;20044;-79
2021/11/28 12:56:30;;;;;;;15.10;7.00;;;;;;;;;;6240375;28;20051;-81
2021/11/28 12:59:32;;;;;;;13.52;6.93;;;;;;;;;;6254176;28;20048;-80
2021/11/28 13:02:47;;;;;;;23.17;9.45;;;;;;;;;;6241039;28;20449;-79
2021/11/28 13:05:55;;;;;;;15.38;8.10;;;;;;;;;;6258839;28;20083;-80
2021/11/28 13:08:57;;;;;;;13.57;6.57;;;;;;;;;;6256398;28;20045;-81
2021/11/28 13:12:02;;;;;;;17.48;7.93;;;;;;;;;;6256226;28;20509;-80
2021/11/28 13:15:05;;;;;;;16.40;8.35;;;;;;;;;;6255483;28;20044;-80
2021/11/28 13:18:09;;;;;;;16.13;7.20;;;;;;;;;;6256815;28;20041;-80
2021/11/28 13:21:41;;;;;;;13.15;6.65;;;;;;;;;;6241169;28;20041;-79
2021/11/28 13:25:34;;;;;;;12.25;6.43;;;;;;;;;;6253655;28;20053;-79
2021/11/28 13:28:56;;;;;;;15.27;7.35;;;;;;;;;;6241853;28;20087;-81
2021/11/28 13:32:01;;;;;;;11.80;6.03;;;;;;;;;;6254147;28;20506;-82
2021/11/28 13:35:14;;;;;;;12.43;6.43;;;;;;;;;;6255764;28;20053;-81
2021/11/28 13:38:21;;;;;;;12.30;5.80;;;;;;;;;;6248466;28;20150;-81
2021/11/28 13:41:28;;;;;;;13.93;6.80;;;;;;;;;;6256780;28;20048;-81
2021/11/28 13:44:31;;;;;;;14.15;6.72;;;;;;;;;;6258609;28;20072;-83
2021/11/28 13:47:33;;;;;;;12.93;6.57;;;;;;;;;;6266218;28;20079;-82
2021/11/28 13:50:34;;;;;;;15.65;7.45;;;;;;;;;;6224123;28;20037;-83
2021/11/28 13:53:51;;;;;;;13.98;6.88;;;;;;;;;;6250353;28;20067;-81
2021/11/28 13:57:04;;;;;;;16.42;7.68;;;;;;;;;;6221077;28;20117;-80
2021/11/28 14:00:07;;;;;;;13.43;7.75;;;;;;;;;;6242523;28;20409;-81
2021/11/28 14:03:12;;;;;;;14.77;7.00;;;;;;;;;;6258889;28;20045;-81
2021/11/28 14:06:14;;;;;;;14.35;6.90;;;;;;;;;;6254001;28;20061;-80
2021/11/28 14:09:15;;;;;;;14.13;6.93;;;;;;;;;;6237660;28;20199;-81
2021/11/28 14:12:27;;;;;;;13.45;6.72;;;;;;;;;;6249438;28;20094;-81
2021/11/28 14:15:32;;;;;;;14.95;6.93;;;;;;;;;;6249561;28;20051;-80
2021/11/28 14:18:42;;;;;;;16.75;7.53;;;;;;;;;;6250241;28;20063;-80
2021/11/28 14:21:43;;;;;;;15.18;7.18;;;;;;;;;;6252666;28;20055;-82
2021/11/28 14:25:25;;;;;;;14.20;6.53;;;;;;;;;;6251086;28;20060;-81
2021/11/28 14:28:29;;;;;;;14.35;6.57;;;;;;;;;;6252739;28;20045;-82
2021/11/28 14:31:31;;;;;;;14.95;7.32;;;;;;;;;;6257354;28;20545;-82
2021/11/28 14:34:33;;;;;;;18.55;9.55;;;;;;;;;;6268807;28;20391;-82
2021/11/28 14:37:34;;;;;;;18.25;8.98;;;;;;;;;;6268962;28;20116;-82
2021/11/28 14:40:36;;;;;;;14.55;6.65;;;;;;;;;;6264888;28;20521;-82
2021/11/28 14:43:47;;;;;;;16.13;6.85;;;;;;;;;;6267424;28;20091;-82
2021/11/28 14:46:50;;;;;;;13.07;6.45;;;;;;;;;;6266222;28;20068;-82
2021/11/28 14:49:57;;;;;;;16.05;7.88;;;;;;;;;;6265886;28;20399;-81
2021/11/28 14:53:02;;;;;;;13.95;6.57;;;;;;;;;;6263419;28;20614;-80
2021/11/28 14:56:04;;;;;;;13.77;7.30;;;;;;;;;;6264121;28;20116;-81
2021/11/28 14:59:23;;;;;;;15.77;7.18;;;;;;;;;;6265541;28;20045;-82
2021/11/28 15:02:34;;;;;;;17.70;7.63;;;;;;;;;;6270078;28;20065;-83
2021/11/28 15:05:36;;;;;;;18.80;8.48;;;;;;;;;;6268707;28;20565;-82
2021/11/28 15:08:42;;;;;;;15.88;7.55;;;;;;;;;;6273807;28;20057;-81
2021/11/28 15:11:43;;;;;;;16.88;7.90;;;;;;;;;;6259689;28;20040;-83
2021/11/28 15:14:45;;;;;;;21.98;11.88;;;;;;;;;;6247704;28;20179;-82
2021/11/28 15:17:48;;;;;;;23.08;10.15;;;;;;;;;;6266706;28;20047;-82
2021/11/28 15:20:50;;;;;;;18.65;8.30;;;;;;;;;;6264940;28;20339;-83
2021/11/28 15:23:52;;;;;;;17.33;8.07;;;;;;;;;;6268445;28;20053;-83
2021/11/28 15:26:56;;;;;;;15.97;8.13;;;;;;;;;;6250272;28;20049;-81
2021/11/28 15:29:57;;;;;;;20.45;8.75;;;;;;;;;;6269023;28;20048;-81
2021/11/28 15:33:00;;;;;;;16.40;7.65;;;;;;;;;;6270281;28;20506;-81
2021/11/28 15:36:01;;;;;;;19.08;8.95;;;;;;;;;;6254709;28;20078;-82
2021/11/28 15:39:05;;;;;;;21.15;10.63;;;;;;;;;;6254103;28;20072;-85
2021/11/28 15:42:07;;;;;;;18.02;9.40;;;;;;;;;;6253468;28;20048;-83
2021/11/28 15:45:11;;;;;;;18.48;8.73;;;;;;;;;;6268911;28;20124;-81
2021/11/28 15:48:18;;;;;;;23.35;9.60;;;;;;;;;;6209365;28;20064;-83
2021/11/28 15:51:24;;;;;;;18.88;10.05;;;;;;;;;;6259607;28;20052;-81
2021/11/28 15:54:26;;;;;;;19.77;9.18;;;;;;;;;;6290110;28;20052;-84
2021/11/28 15:57:28;;;;;;;15.60;7.35;;;;;;;;;;6269327;28;20069;-83
2021/11/28 16:00:29;;;;;;;51.00;15.40;;;;;;;;;;6257448;28;20041;-82
2021/11/28 16:03:31;;;;;;;75.00;19.73;;;;;;;;;;6269234;28;20045;-81
2021/11/28 16:06:33;;;;;;;29.55;15.75;;;;;;;;;;6244146;28;20064;-80
2021/11/28 16:09:36;;;;;;;24.80;10.63;;;;;;;;;;6265709;28;20065;-82
2021/11/28 16:12:38;;;;;;;14.40;7.68;;;;;;;;;;6238340;28;20049;-80
2021/11/28 16:15:40;;;;;;;13.18;6.25;;;;;;;;;;6249297;28;20122;-82
2021/11/28 16:18:41;;;;;;;19.45;8.50;;;;;;;;;;6217917;28;20075;-83
2021/11/28 16:21:43;;;;;;;16.67;8.10;;;;;;;;;;6271294;28;20063;-83
2021/11/28 16:24:46;;;;;;;13.00;7.40;;;;;;;;;;6240128;28;20045;-82
2021/11/28 16:27:48;;;;;;;12.93;6.63;;;;;;;;;;6259474;28;20059;-82
2021/11/28 16:30:50;;;;;;;10.98;5.85;;;;;;;;;;6264972;28;20616;-82
2021/11/28 16:33:52;;;;;;;14.43;7.45;;;;;;;;;;6265572;28;20188;-83
2021/11/28 16:36:53;;;;;;;12.27;6.47;;;;;;;;;;6265354;28;20045;-81
2021/11/28 16:39:55;;;;;;;9.68;5.22;;;;;;;;;;6262716;28;20071;-82
2021/11/28 16:42:58;;;;;;;10.25;5.85;;;;;;;;;;6262640;28;20048;-81
2021/11/28 16:45:59;;;;;;;11.20;6.05;;;;;;;;;;6247554;28;20048;-83
2021/11/28 16:49:02;;;;;;;13.98;6.97;;;;;;;;;;6264500;28;20048;-82
2021/11/28 16:52:04;;;;;;;12.82;6.93;;;;;;;;;;6263574;28;20068;-83
2021/11/28 16:55:07;;;;;;;11.38;6.45;;;;;;;;;;6263358;28;20071;-82
2021/11/28 16:58:10;;;;;;;16.57;8.00;;;;;;;;;;6259127;28;20700;-84
2021/11/28 17:01:12;;;;;;;;;;;;;;;;;;6269356;28;20459;-83
2021/11/28 17:04:14;;;;;;;20.15;8.82;;;;;;;;;;6262030;28;20054;-82
2021/11/28 17:07:15;;;;;;;14.50;7.40;;;;;;;;;;6264809;28;20041;-82
2021/11/28 17:10:23;;;;;;;14.23;6.93;;;;;;;;;;6266291;28;20048;-81
2021/11/28 17:13:25;;;;;;;15.07;7.55;;;;;;;;;;6241007;28;20050;-81
2021/11/28 17:16:26;;;;;;;13.23;7.07;;;;;;;;;;6257992;28;20101;-79
2021/11/28 17:19:28;;;;;;;11.13;6.43;;;;;;;;;;6258595;28;20049;-81
2021/11/28 17:22:29;;;;;;;12.85;6.85;;;;;;;;;;6249391;28;20049;-82
2021/11/28 17:25:32;;;;;;;15.32;7.97;;;;;;;;;;6256046;28;20047;-82
2021/11/28 17:28:34;;;;;;;12.52;6.55;;;;;;;;;;6253613;28;20455;-82
2021/11/28 17:31:36;;;;;;;13.38;7.32;;;;;;;;;;6239022;28;20066;-82
2021/11/28 17:34:39;;;;;;;13.52;7.07;;;;;;;;;;6253871;28;20053;-81
2021/11/28 17:37:41;;;;;;;15.77;8.25;;;;;;;;;;6247585;28;20087;-83
2021/11/28 17:40:43;;;;;;;13.60;7.57;;;;;;;;;;6249008;28;20571;-84
2021/11/28 17:43:45;;;;;;;13.18;7.70;;;;;;;;;;6259653;28;20052;-83
2021/11/28 17:46:47;;;;;;;16.52;8.88;;;;;;;;;;6266265;28;20520;-82
2021/11/28 17:49:48;;;;;;;21.70;10.85;;;;;;;;;;6262416;28;20060;-82
2021/11/28 17:52:50;;;;;;;12.35;7.90;;;;;;;;;;6264115;28;20077;-82
2021/11/28 17:55:52;;;;;;;11.18;6.35;;;;;;;;;;6264821;28;20063;-82
2021/11/28 17:58:55;;;;;;;9.95;6.10;;;;;;;;;;6263427;28;20041;-83
2021/11/28 18:01:57;;;;;;;12.60;7.07;;;;;;;;;;6246337;28;20041;-83
2021/11/28 18:04:58;;;;;;;14.48;7.82;;;;;;;;;;6266807;28;20525;-83
2021/11/28 18:08:00;;;;;;;19.55;11.50;;;;;;;;;;6267631;28;20040;-82
2021/11/28 18:11:03;;;;;;;16.30;8.23;;;;;;;;;;6268576;28;20041;-82
2021/11/28 18:14:05;;;;;;;;;;;;;;;;;;6262964;28;20068;-83